createdAt,value
2019-05-01T00:01:00.316Z,96.67
2019-05-01T00:03:53.472Z,100.27
2019-05-01T00:06:30.174Z,97.33
2019-05-01T00:09:02.344Z,98.33
2019-05-01T00:11:35.055Z,95.93
2019-05-01T00:14:10.191Z,93.07
2019-05-01T00:16:43.856Z,103.80
2019-05-01T00:19:16.850Z,95.33
2019-05-01T00:21:49.331Z,92.87
2019-05-01T00:24:21.681Z,100.27
2019-05-01T00:26:52.772Z,101.33
2019-05-01T00:29:25.146Z,101.67
2019-05-01T00:31:57.005Z,92.70
2019-05-01T00:34:32.595Z,99.83
2019-05-01T00:37:04.869Z,94.27
2019-05-01T00:39:37.056Z,110.17
2019-05-01T00:42:17.587Z,98.50
2019-05-01T00:44:51.771Z,95.73
2019-05-01T00:47:23.082Z,97.57
2019-05-01T00:49:54.528Z,98.73
2019-05-01T00:52:25.091Z,111.23
2019-05-01T00:55:15.072Z,99.17
2019-05-01T00:57:57.203Z,104.57
2019-05-01T01:00:47.291Z,102.30
2019-05-01T01:03:19.260Z,101.70
2019-05-01T01:05:50.656Z,105.00
2019-05-01T01:08:22.001Z,101.53
2019-05-01T01:10:55.297Z,109.80
2019-05-01T01:13:26.518Z,104.27
2019-05-01T01:15:59.560Z,110.67
2019-05-01T01:18:31.957Z,109.73
2019-05-01T01:21:04.007Z,103.27
2019-05-01T01:23:39.451Z,112.73
2019-05-01T01:26:11.180Z,108.50
2019-05-01T01:28:44.102Z,103.30
2019-05-01T01:31:16.551Z,105.83
2019-05-01T01:33:49.582Z,102.17
2019-05-01T01:36:34.038Z,105.53
2019-05-01T01:39:10.501Z,103.90
2019-05-01T01:41:44.747Z,106.90
2019-05-01T01:44:27.531Z,96.13
2019-05-01T01:47:02.558Z,99.23
2019-05-01T01:49:49.446Z,97.10
2019-05-01T01:52:23.745Z,98.00
2019-05-01T01:54:56.217Z,98.10
2019-05-01T01:57:29.111Z,97.57
2019-05-01T02:00:05.951Z,103.27
2019-05-01T02:02:53.558Z,93.40
2019-05-01T02:05:34.418Z,98.37
2019-05-01T02:08:09.283Z,94.40
2019-05-01T02:10:43.851Z,93.13
2019-05-01T02:13:15.962Z,92.93
2019-05-01T02:15:46.863Z,95.20
2019-05-01T02:18:26.477Z,94.80
2019-05-01T02:20:57.927Z,94.90
2019-05-01T02:23:30.296Z,86.10
2019-05-01T02:26:02.716Z,94.50
2019-05-01T02:29:08.411Z,88.43
2019-05-01T02:31:45.199Z,89.63
2019-05-01T02:34:18.658Z,87.53
2019-05-01T02:36:53.053Z,87.47
2019-05-01T02:39:25.273Z,93.13
2019-05-01T02:41:59.810Z,92.00
2019-05-01T02:44:43.589Z,94.57
2019-05-01T02:47:19.647Z,96.90
2019-05-01T02:49:54.562Z,94.67
2019-05-01T02:52:30.223Z,88.60
2019-05-01T02:55:05.706Z,87.20
2019-05-01T02:57:39.901Z,91.20
2019-05-01T03:00:12.832Z,92.37
2019-05-01T03:02:44.009Z,86.23
2019-05-01T03:05:16.977Z,85.83
2019-05-01T03:07:48.279Z,90.00
2019-05-01T03:10:20.330Z,87.30
2019-05-01T03:12:52.890Z,84.67
2019-05-01T03:15:27.779Z,88.87
2019-05-01T03:18:22.327Z,92.03
2019-05-01T03:21:12.659Z,90.57
2019-05-01T03:23:49.937Z,82.80
2019-05-01T03:26:22.414Z,83.80
2019-05-01T03:28:54.980Z,79.37
2019-05-01T03:31:26.117Z,75.77
2019-05-01T03:33:58.344Z,78.97
2019-05-01T03:36:30.246Z,76.53
2019-05-01T03:39:03.669Z,78.47
2019-05-01T03:41:35.168Z,81.70
2019-05-01T03:44:06.414Z,79.90
2019-05-01T03:46:38.437Z,79.43
2019-05-01T03:49:09.395Z,82.77
2019-05-01T03:51:43.569Z,73.83
2019-05-01T03:54:15.319Z,73.03
2019-05-01T03:56:48.217Z,78.43
2019-05-01T03:59:19.871Z,78.70
2019-05-01T04:02:05.034Z,80.70
2019-05-01T04:04:35.998Z,74.43
2019-05-01T04:07:08.569Z,77.53
2019-05-01T04:09:43.509Z,83.50
2019-05-01T04:12:14.237Z,79.73
2019-05-01T04:14:46.947Z,79.10
2019-05-01T04:17:40.799Z,78.13
2019-05-01T04:20:14.556Z,82.00
2019-05-01T04:22:47.259Z,77.33
2019-05-01T04:25:21.820Z,80.03
2019-05-01T04:27:53.587Z,83.43
2019-05-01T04:30:34.402Z,76.67
2019-05-01T04:33:08.966Z,71.67
2019-05-01T04:36:05.033Z,82.10
2019-05-01T04:38:35.809Z,75.47
2019-05-01T04:41:07.062Z,78.20
2019-05-01T04:43:38.014Z,73.47
2019-05-01T04:46:12.547Z,72.83
2019-05-01T04:48:44.889Z,74.70
2019-05-01T04:51:16.723Z,70.43
2019-05-01T04:53:48.311Z,75.43
2019-05-01T04:56:19.603Z,73.77
2019-05-01T04:58:51.702Z,77.80
2019-05-01T05:01:22.908Z,72.43
2019-05-01T05:04:01.284Z,72.23
2019-05-01T05:06:32.331Z,73.30
2019-05-01T05:09:05.736Z,79.30
2019-05-01T05:11:49.368Z,72.97
2019-05-01T05:14:24.452Z,67.90
2019-05-01T05:17:05.997Z,76.90
2019-05-01T05:19:37.127Z,71.00
2019-05-01T05:22:08.021Z,75.30
2019-05-01T05:24:39.229Z,77.97
2019-05-01T05:27:10.838Z,71.57
2019-05-01T05:29:46.644Z,73.13
2019-05-01T05:32:22.638Z,71.60
2019-05-01T05:34:56.891Z,72.10
2019-05-01T05:37:35.666Z,68.77
2019-05-01T05:40:08.433Z,63.40
2019-05-01T05:42:39.373Z,68.50
2019-05-01T05:45:11.701Z,68.90
2019-05-01T05:47:43.592Z,69.53
2019-05-01T05:50:18.144Z,60.03
2019-05-01T05:52:59.047Z,64.67
2019-05-01T05:55:39.530Z,73.13
2019-05-01T05:58:33.627Z,71.87
2019-05-01T06:01:21.676Z,63.77
2019-05-01T06:04:27.353Z,65.50
2019-05-01T06:07:15.561Z,69.07
2019-05-01T06:10:05.771Z,68.17
2019-05-01T06:12:46.815Z,74.93
2019-05-01T06:15:24.432Z,69.63
2019-05-01T06:18:20.401Z,65.90
2019-05-01T06:21:08.566Z,69.63
2019-05-01T06:24:06.545Z,68.53
2019-05-01T06:26:39.409Z,74.27
2019-05-01T06:29:09.659Z,68.10
2019-05-01T06:31:40.587Z,64.50
2019-05-01T06:34:11.465Z,72.87
2019-05-01T06:36:44.187Z,67.30
2019-05-01T06:39:16.514Z,70.33
2019-05-01T06:41:48.590Z,65.27
2019-05-01T06:44:44.272Z,66.83
2019-05-01T06:47:26.723Z,64.47
2019-05-01T06:50:21.644Z,66.17
2019-05-01T06:52:54.053Z,63.07
2019-05-01T06:55:29.027Z,69.17
2019-05-01T06:58:01.413Z,58.87
2019-05-01T07:00:32.652Z,66.03
2019-05-01T07:03:06.041Z,60.60
2019-05-01T07:05:44.457Z,63.90
2019-05-01T07:08:23.966Z,61.27
2019-05-01T07:10:45.904Z,60.43
2019-05-01T07:13:17.409Z,57.80
2019-05-01T07:15:50.119Z,69.27
2019-05-01T07:18:24.113Z,54.80
2019-05-01T07:20:54.484Z,56.97
2019-05-01T07:23:26.958Z,54.77
2019-05-01T07:25:58.883Z,55.97
2019-05-01T07:28:36.203Z,64.90
2019-05-01T07:31:09.294Z,57.20
2019-05-01T07:33:42.527Z,53.83
2019-05-01T07:36:16.269Z,54.80
2019-05-01T07:38:50.883Z,60.47
2019-05-01T07:41:22.068Z,57.77
2019-05-01T07:44:33.827Z,54.30
2019-05-01T07:47:26.031Z,58.90
2019-05-01T07:50:03.930Z,57.90
2019-05-01T07:52:36.962Z,54.80
2019-05-01T07:55:18.410Z,61.87
2019-05-01T07:57:46.360Z,47.87
2019-05-01T08:00:29.872Z,48.33
2019-05-01T08:03:02.629Z,49.93
2019-05-01T08:05:33.932Z,52.93
2019-05-01T08:08:07.970Z,52.27
2019-05-01T08:10:42.964Z,51.47
2019-05-01T08:13:30.600Z,54.43
2019-05-01T08:16:02.121Z,56.00
2019-05-01T08:18:49.345Z,48.03
2019-05-01T08:22:01.594Z,44.47
2019-05-01T08:24:33.633Z,45.63
2019-05-01T08:27:07.658Z,44.90
2019-05-01T08:30:12.710Z,44.23
2019-05-01T08:32:46.823Z,41.93
2019-05-01T08:35:20.479Z,39.60
2019-05-01T08:37:53.809Z,47.53
2019-05-01T08:40:27.724Z,50.83
2019-05-01T08:43:01.069Z,46.17
2019-05-01T08:45:51.156Z,42.33
2019-05-01T08:48:35.888Z,46.17
2019-05-01T08:51:07.954Z,42.73
2019-05-01T08:53:39.750Z,43.90
2019-05-01T08:56:10.630Z,47.47
2019-05-01T08:58:44.744Z,46.20
2019-05-01T09:01:17.578Z,45.60
2019-05-01T09:03:55.725Z,46.87
2019-05-01T09:06:35.055Z,52.30
2019-05-01T09:09:09.991Z,50.27
2019-05-01T09:11:42.638Z,53.50
2019-05-01T09:14:14.305Z,57.50
2019-05-01T09:16:46.380Z,52.73
2019-05-01T09:19:17.182Z,60.53
2019-05-01T09:21:49.582Z,54.70
2019-05-01T09:24:23.168Z,54.30
2019-05-01T09:27:12.000Z,57.40
2019-05-01T09:29:52.856Z,59.43
2019-05-01T09:32:24.624Z,56.23
2019-05-01T09:34:58.195Z,64.63
2019-05-01T09:37:30.607Z,66.03
2019-05-01T09:40:04.242Z,67.37
2019-05-01T09:42:36.765Z,67.93
2019-05-01T09:45:09.979Z,79.17
2019-05-01T09:47:41.745Z,75.00
2019-05-01T09:50:18.203Z,78.57
2019-05-01T09:53:22.545Z,76.30
2019-05-01T09:56:03.256Z,71.77
2019-05-01T09:58:34.370Z,76.77
2019-05-01T10:01:05.753Z,79.33
2019-05-01T10:03:37.391Z,77.63
2019-05-01T10:06:12.771Z,77.40
2019-05-01T10:08:43.724Z,75.60
2019-05-01T10:11:20.079Z,73.87
2019-05-01T10:13:53.664Z,74.97
2019-05-01T10:16:27.068Z,70.53
2019-05-01T10:19:01.188Z,70.77
2019-05-01T10:21:35.141Z,65.97
2019-05-01T10:24:10.698Z,62.70
2019-05-01T10:26:46.985Z,67.10
2019-05-01T10:29:39.146Z,60.43
2019-05-01T10:32:21.564Z,68.27
2019-05-01T10:35:19.083Z,60.20
2019-05-01T10:37:56.275Z,60.40
2019-05-01T10:40:34.353Z,57.77
2019-05-01T10:43:06.529Z,51.97
2019-05-01T10:45:54.260Z,55.83
2019-05-01T10:48:30.329Z,59.23
2019-05-01T10:51:21.425Z,62.83
2019-05-01T10:54:39.530Z,65.67
2019-05-01T10:57:19.171Z,62.20
2019-05-01T10:59:55.374Z,55.33
2019-05-01T11:02:35.051Z,54.50
2019-05-01T11:05:55.255Z,59.30
2019-05-01T11:08:26.384Z,60.33
2019-05-01T11:11:02.856Z,64.20
2019-05-01T11:13:43.796Z,58.53
2019-05-01T11:16:37.990Z,56.20
2019-05-01T11:19:16.551Z,67.67
2019-05-01T11:22:09.469Z,57.67
2019-05-01T11:24:41.679Z,52.73
2019-05-01T11:30:55.100Z,55.93
2019-05-01T11:34:04.646Z,58.90
2019-05-01T11:36:44.633Z,58.73
2019-05-01T11:39:31.158Z,57.53
2019-05-01T11:42:20.891Z,66.07
2019-05-01T11:45:52.689Z,69.47
2019-05-01T11:49:35.374Z,63.20
2019-05-01T11:52:31.096Z,68.13
2019-05-01T11:55:09.211Z,71.90
2019-05-01T11:58:03.570Z,57.20
2019-05-01T12:00:40.696Z,65.90
2019-05-01T12:03:26.740Z,56.50
2019-05-01T12:06:22.666Z,61.03
2019-05-01T12:09:32.700Z,65.63
2019-05-01T12:12:37.365Z,69.27
2019-05-01T12:15:51.280Z,65.50
2019-05-01T12:19:00.742Z,72.33
2019-05-01T12:21:42.424Z,71.43
2019-05-01T12:24:14.795Z,70.23
2019-05-01T12:26:52.877Z,69.50
2019-05-01T12:29:26.219Z,66.50
2019-05-01T12:32:12.095Z,60.20
2019-05-01T12:34:52.087Z,66.60
2019-05-01T12:37:45.000Z,70.63
2019-05-01T12:40:38.854Z,70.90
2019-05-01T12:43:21.151Z,65.47
2019-05-01T12:46:33.222Z,60.90
2019-05-01T12:49:20.213Z,60.57
2019-05-01T12:52:47.209Z,60.63
2019-05-01T12:55:35.121Z,63.10
2019-05-01T12:58:30.425Z,61.43
2019-05-01T13:01:10.316Z,56.53
2019-05-01T13:03:52.659Z,59.10
2019-05-01T13:06:48.629Z,58.90
2019-05-01T13:09:30.689Z,54.13
2019-05-01T13:12:34.014Z,49.33
2019-05-01T13:15:15.226Z,49.63
2019-05-01T13:17:57.020Z,61.17
2019-05-01T13:21:02.523Z,55.47
2019-05-01T13:24:02.539Z,47.57
2019-05-01T13:27:09.386Z,54.83
2019-05-01T13:30:00.416Z,52.97
2019-05-01T13:32:52.676Z,50.53
2019-05-01T13:35:37.841Z,57.93
2019-05-01T13:38:18.739Z,58.30
2019-05-01T13:40:58.824Z,56.87
2019-05-01T13:43:43.514Z,54.43
2019-05-01T13:46:32.839Z,49.70
2019-05-01T13:49:12.063Z,56.53
2019-05-01T13:51:51.640Z,57.80
2019-05-01T13:54:31.695Z,57.13
2019-05-01T13:57:04.671Z,57.73
2019-05-01T13:59:40.164Z,61.53
2019-05-01T14:02:13.984Z,53.40
2019-05-01T14:04:57.301Z,52.57
2019-05-01T14:07:36.979Z,49.27
2019-05-01T14:10:11.754Z,52.63
2019-05-01T14:12:45.411Z,47.90
2019-05-01T14:15:28.392Z,42.07
2019-05-01T14:18:09.670Z,48.67
2019-05-01T14:21:13.371Z,50.27
2019-05-01T14:24:13.765Z,54.63
2019-05-01T14:26:55.040Z,54.00
2019-05-01T14:30:09.498Z,57.43
2019-05-01T14:32:43.687Z,46.50
2019-05-01T14:35:32.675Z,53.50
2019-05-01T14:38:08.454Z,47.33
2019-05-01T14:40:42.204Z,47.70
2019-05-01T14:43:21.077Z,50.70
2019-05-01T14:45:55.984Z,48.50
2019-05-01T14:48:28.390Z,47.70
2019-05-01T14:51:03.615Z,42.67
2019-05-01T14:53:41.430Z,47.90
2019-05-01T14:56:16.646Z,44.40
2019-05-01T14:58:50.501Z,40.77
2019-05-01T15:01:26.865Z,39.53
2019-05-01T15:06:55.553Z,48.47
2019-05-01T15:09:46.185Z,42.83
2019-05-01T15:12:27.947Z,47.20
2019-05-01T15:15:12.695Z,37.53
2019-05-01T15:18:33.402Z,37.53
2019-05-01T15:21:06.840Z,40.00
2019-05-01T15:23:53.129Z,38.80
2019-05-01T15:26:40.537Z,38.37
2019-05-01T15:29:22.344Z,39.10
2019-05-01T15:34:50.966Z,38.80
2019-05-01T15:37:26.025Z,36.08
2019-05-01T15:40:07.731Z,40.60
2019-05-01T15:43:00.588Z,42.70
2019-05-01T15:45:35.235Z,36.63
2019-05-01T15:48:07.857Z,45.10
2019-05-01T15:50:43.254Z,39.35
2019-05-01T15:53:29.447Z,41.95
2019-05-01T15:57:17.671Z,34.20
2019-05-01T15:59:50.944Z,34.85
2019-05-01T16:02:23.698Z,41.83
2019-05-01T16:05:09.561Z,36.95
2019-05-01T16:07:48.949Z,38.13
2019-05-01T16:10:30.970Z,41.45
2019-05-01T16:13:05.663Z,41.67
2019-05-01T16:15:40.502Z,38.13
2019-05-01T16:18:14.936Z,42.37
2019-05-01T16:20:48.596Z,40.90
2019-05-01T16:23:21.764Z,42.80
2019-05-01T16:25:55.844Z,35.93
2019-05-01T16:28:27.808Z,43.93
2019-05-01T16:31:32.470Z,45.70
2019-05-01T16:34:11.555Z,40.43
2019-05-01T16:36:44.475Z,51.83
2019-05-01T16:39:51.116Z,43.00
2019-05-01T16:42:35.600Z,45.27
2019-05-01T16:45:17.009Z,43.13
2019-05-01T16:47:54.525Z,40.77
2019-05-01T16:50:38.681Z,43.87
2019-05-01T16:53:34.119Z,49.17
2019-05-01T16:55:55.869Z,42.00
2019-05-01T16:58:39.201Z,43.00
2019-05-01T17:01:30.756Z,42.07
2019-05-01T17:04:21.445Z,43.73
2019-05-01T17:07:15.297Z,38.67
2019-05-01T17:10:17.499Z,43.00
2019-05-01T17:13:12.175Z,43.20
2019-05-01T17:15:51.842Z,45.80
2019-05-01T17:21:19.060Z,47.53
2019-05-01T17:24:03.565Z,44.90
2019-05-01T17:26:48.914Z,45.73
2019-05-01T17:29:22.006Z,43.87
2019-05-01T17:32:22.067Z,48.20
2019-05-01T17:35:15.266Z,54.37
2019-05-01T17:37:59.632Z,54.50
2019-05-01T17:40:33.502Z,61.07
2019-05-01T17:43:28.712Z,46.80
2019-05-01T17:46:05.845Z,47.03
2019-05-01T17:48:37.635Z,59.93
2019-05-01T17:51:12.096Z,49.90
2019-05-01T17:53:45.836Z,49.37
2019-05-01T17:56:37.703Z,46.37
2019-05-01T17:59:17.520Z,47.60
2019-05-01T18:02:09.954Z,52.43
2019-05-01T18:04:58.755Z,51.43
2019-05-01T18:07:49.724Z,50.07
2019-05-01T18:10:25.601Z,46.33
2019-05-01T18:13:00.876Z,49.27
2019-05-01T18:15:45.509Z,52.40
2019-05-01T18:18:29.146Z,50.77
2019-05-01T18:21:32.401Z,50.47
2019-05-01T18:24:47.469Z,65.93
2019-05-01T18:28:29.940Z,49.90
2019-05-01T18:31:27.902Z,49.73
2019-05-01T18:37:57.957Z,53.87
2019-05-01T18:40:50.725Z,56.53
2019-05-01T18:44:05.357Z,53.53
2019-05-01T18:46:46.944Z,60.07
2019-05-01T18:49:38.126Z,59.23
2019-05-01T18:52:13.771Z,60.37
2019-05-01T18:55:10.671Z,55.90
2019-05-01T18:58:02.286Z,59.07
2019-05-01T19:00:49.028Z,55.03
2019-05-01T19:03:42.502Z,55.90
2019-05-01T19:06:14.855Z,55.53
2019-05-01T19:08:50.486Z,62.43
2019-05-01T19:11:34.645Z,56.77
2019-05-01T19:14:33.805Z,52.93
2019-05-01T19:17:18.512Z,55.23
2019-05-01T19:20:05.025Z,59.27
2019-05-01T19:22:43.326Z,61.03
2019-05-01T19:28:10.233Z,55.73
2019-05-01T19:30:47.527Z,58.17
2019-05-01T19:33:22.528Z,62.47
2019-05-01T19:35:57.204Z,71.17
2019-05-01T19:38:34.790Z,60.90
2019-05-01T19:41:09.605Z,55.27
2019-05-01T19:43:46.331Z,56.30
2019-05-01T19:46:18.646Z,58.47
2019-05-01T19:48:52.682Z,57.50
2019-05-01T19:51:26.055Z,61.97
2019-05-01T19:54:07.837Z,62.60
2019-05-01T19:56:48.788Z,61.73
2019-05-01T19:59:24.516Z,61.77
2019-05-01T20:02:04.756Z,62.83
2019-05-01T20:04:45.269Z,59.03
2019-05-01T20:07:21.539Z,63.20
2019-05-01T20:09:58.511Z,64.70
2019-05-01T20:12:32.555Z,65.87
2019-05-01T20:15:07.903Z,59.63
2019-05-01T20:17:59.352Z,60.57
2019-05-01T20:20:32.685Z,62.97
2019-05-01T20:23:05.473Z,65.03
2019-05-01T20:25:50.952Z,62.07
2019-05-01T20:28:31.453Z,65.37
2019-05-01T20:31:05.327Z,64.93
2019-05-01T20:33:44.484Z,68.13
2019-05-01T20:36:18.204Z,63.93
2019-05-01T20:38:51.697Z,68.27
2019-05-01T20:41:26.619Z,62.97
2019-05-01T20:44:01.226Z,68.53
2019-05-01T20:46:41.966Z,66.07
2019-05-01T20:49:17.685Z,63.53
2019-05-01T20:51:53.927Z,63.90
2019-05-01T20:54:31.076Z,64.40
2019-05-01T20:57:21.360Z,69.73
2019-05-01T20:59:57.717Z,63.17
2019-05-01T21:02:31.370Z,67.53
2019-05-01T21:05:29.643Z,73.63
2019-05-01T21:08:13.502Z,74.40
2019-05-01T21:11:13.047Z,71.60
2019-05-01T21:13:49.767Z,66.20
2019-05-01T21:16:26.143Z,64.37
2019-05-01T21:19:04.697Z,57.87
2019-05-01T21:21:41.134Z,62.53
2019-05-01T21:24:14.139Z,60.37
2019-05-01T21:26:51.098Z,59.67
2019-05-01T21:29:24.083Z,59.03
2019-05-01T21:31:56.146Z,58.33
2019-05-01T21:34:27.776Z,63.50
2019-05-01T21:37:03.671Z,55.10
2019-05-01T21:39:36.032Z,59.50
2019-05-01T21:42:11.562Z,56.43
2019-05-01T21:44:43.502Z,56.73
2019-05-01T21:47:14.643Z,54.13
2019-05-01T21:49:45.885Z,61.90
2019-05-01T21:52:25.074Z,59.17
2019-05-01T21:54:55.423Z,54.33
2019-05-01T21:57:32.575Z,60.80
2019-05-01T22:00:05.717Z,67.60
2019-05-01T22:02:41.610Z,56.13
2019-05-01T22:05:13.622Z,60.20
2019-05-01T22:07:47.691Z,64.93
2019-05-01T22:10:21.653Z,56.93
2019-05-01T22:12:51.613Z,63.37
2019-05-01T22:15:36.361Z,65.13
2019-05-01T22:18:26.774Z,75.33
2019-05-01T22:21:29.154Z,64.73
2019-05-01T22:24:24.454Z,65.07
2019-05-01T22:27:02.912Z,69.23
2019-05-01T22:29:36.461Z,65.00
2019-05-01T22:32:27.630Z,66.40
2019-05-01T22:35:24.225Z,62.30
2019-05-01T22:37:55.751Z,69.37
2019-05-01T22:41:05.488Z,62.73
2019-05-01T22:43:27.108Z,71.87
2019-05-01T22:46:01.720Z,63.87
2019-05-01T22:48:30.668Z,72.47
2019-05-01T22:51:09.343Z,69.83
2019-05-01T22:53:40.832Z,71.87
2019-05-01T22:56:12.921Z,72.57
2019-05-01T22:58:44.083Z,66.23
2019-05-01T23:01:18.111Z,72.37
2019-05-01T23:04:06.936Z,68.73
2019-05-01T23:06:41.781Z,67.07
2019-05-01T23:09:14.252Z,76.33
2019-05-01T23:11:48.366Z,63.90
2019-05-01T23:14:20.261Z,63.77
2019-05-01T23:17:03.366Z,65.60
2019-05-01T23:19:36.836Z,69.73
2019-05-01T23:22:08.396Z,63.33
2019-05-01T23:24:40.583Z,70.40
2019-05-01T23:27:11.521Z,65.00
2019-05-01T23:29:42.834Z,68.17
2019-05-01T23:32:13.714Z,66.67
2019-05-01T23:34:45.302Z,68.60
2019-05-01T23:37:18.302Z,61.80
2019-05-01T23:39:49.687Z,60.80
2019-05-01T23:42:20.937Z,69.07
2019-05-01T23:44:51.862Z,58.83
2019-05-01T23:47:24.738Z,60.10
2019-05-01T23:49:55.876Z,65.10
2019-05-01T23:52:28.142Z,65.30
2019-05-01T23:54:58.903Z,65.87
2019-05-01T23:57:29.817Z,65.13
